Decoded Metar for PAVA (Chevak in AK, USA) (IATA:N/A) | Meteo·Mobile Aviation Weather
aviador You're here:

PAVA Decoded Metar

Chevak in AK, USA
Report Time2019-04-19 17:56:00
UTC Time2019-04-19 18:26:46
Flight Rules vfr VFR
Wind340° at 11 kt
W.Decomp.*RWY 02: 6.6 kt HW 8.8 kt LCW
Visibility9999 m
Phenomena:Light Snow
Clouds:Overcast 031 Hf
Expected CloudBase > 800 ft AGL from Temp-Dew spread
Ceiling3,100 ft
Temp-6°C (ISA -21)
Dew Point-8°C (86% RH)
AAT-12.9°C
QNH1007 hPa
Density Alt-2,257 ft
Elevation75 ft
Report Wrong Elevation
Raw Report
PAVA 191756Z AUTO 34011KT 9SM -SN OVC031 M06/M08 A2975 RMK AO2
SLP160 6//// T10561083 11056 21061 51003 FZRANO PNO $=

Extra information for PAVA:More info

Airport Information Weather charts Add Link Nearby Venues Social comments

AIRNAV info for PAVA